createdAt,value
2022-11-03T00:01:58.389Z,2.50
2022-11-03T00:04:25.103Z,2.45
2022-11-03T00:06:53.919Z,2.22
2022-11-03T00:09:22.032Z,2.60
2022-11-03T00:11:50.732Z,2.60
2022-11-03T00:14:18.545Z,3.40
2022-11-03T00:16:45.136Z,3.08
2022-11-03T00:19:13.584Z,3.40
2022-11-03T00:21:40.168Z,3.20
2022-11-03T00:24:07.359Z,3.20
2022-11-03T00:26:35.828Z,3.25
2022-11-03T00:29:10.806Z,3.47
2022-11-03T00:31:39.724Z,4.05
2022-11-03T00:34:07.171Z,4.40
2022-11-03T00:36:39.430Z,4.60
2022-11-03T00:39:06.224Z,4.22
2022-11-03T00:41:33.894Z,4.93
2022-11-03T00:44:00.491Z,3.38
2022-11-03T00:46:27.530Z,3.90
2022-11-03T00:48:54.891Z,2.97
2022-11-03T00:51:26.945Z,2.72
2022-11-03T00:53:56.036Z,2.53
2022-11-03T00:56:31.420Z,3.60
2022-11-03T00:58:59.815Z,2.78
2022-11-03T01:01:45.322Z,2.70
2022-11-03T01:04:32.665Z,2.28
2022-11-03T01:07:00.784Z,2.45
2022-11-03T01:09:30.356Z,2.67
2022-11-03T01:12:06.139Z,2.33
2022-11-03T01:14:41.663Z,2.15
2022-11-03T01:17:11.011Z,2.33
2022-11-03T01:19:58.064Z,2.55
2022-11-03T01:22:44.663Z,2.70
2022-11-03T01:25:31.405Z,3.03
2022-11-03T01:28:18.047Z,3.30
2022-11-03T01:31:10.040Z,3.45
2022-11-03T01:33:57.577Z,2.88
2022-11-03T01:36:25.133Z,3.33
2022-11-03T01:38:51.707Z,2.72
2022-11-03T01:41:27.205Z,2.78
2022-11-03T01:44:09.003Z,2.60
2022-11-03T01:46:54.765Z,2.75
2022-11-03T01:49:32.169Z,2.30
2022-11-03T01:52:15.700Z,2.47
2022-11-03T01:54:45.888Z,2.45
2022-11-03T01:57:17.392Z,3.15
2022-11-03T01:59:46.905Z,2.42
2022-11-03T02:02:20.813Z,2.47
2022-11-03T02:04:47.406Z,2.55
2022-11-03T02:07:26.776Z,2.40
2022-11-03T02:09:53.730Z,3.03
2022-11-03T02:12:22.251Z,3.08
2022-11-03T02:15:03.183Z,3.25
2022-11-03T02:17:31.258Z,3.63
2022-11-03T02:20:02.195Z,3.30
2022-11-03T02:22:59.535Z,4.78
2022-11-03T02:25:47.532Z,3.75
2022-11-03T02:28:18.481Z,3.30
2022-11-03T02:31:04.014Z,3.30
2022-11-03T02:33:37.451Z,3.85
2022-11-03T02:36:13.953Z,3.22
2022-11-03T02:38:48.373Z,2.70
2022-11-03T02:41:17.498Z,3.42
2022-11-03T02:43:46.270Z,2.65
2022-11-03T02:46:14.994Z,2.88
2022-11-03T02:48:41.746Z,3.00
2022-11-03T02:51:08.316Z,2.65
2022-11-03T02:53:43.208Z,2.88
2022-11-03T02:56:22.830Z,3.03
2022-11-03T02:59:01.754Z,3.43
2022-11-03T03:01:47.562Z,2.20
2022-11-03T03:04:20.690Z,2.78
2022-11-03T03:06:56.370Z,2.92
2022-11-03T03:09:34.480Z,2.40
2022-11-03T03:12:03.709Z,2.40
2022-11-03T03:14:39.265Z,2.72
2022-11-03T03:17:31.931Z,2.95
2022-11-03T03:20:14.520Z,2.58
2022-11-03T03:22:51.807Z,2.45
2022-11-03T03:25:43.826Z,2.17
2022-11-03T03:28:15.929Z,2.35
2022-11-03T03:30:45.604Z,2.38
2022-11-03T03:33:14.898Z,2.25
2022-11-03T03:35:45.435Z,2.53
2022-11-03T03:38:38.637Z,2.60
2022-11-03T03:41:10.676Z,2.47
2022-11-03T03:43:38.445Z,3.60
2022-11-03T03:46:11.735Z,2.40
2022-11-03T03:48:38.251Z,2.70
2022-11-03T03:51:06.613Z,2.72
2022-11-03T03:53:33.657Z,3.50
2022-11-03T03:56:00.192Z,3.40
2022-11-03T03:58:26.824Z,2.72
2022-11-03T04:00:53.783Z,2.65
2022-11-03T04:03:25.733Z,3.45
2022-11-03T04:05:56.328Z,3.05
2022-11-03T04:08:23.102Z,2.72
2022-11-03T04:11:08.752Z,2.55
2022-11-03T04:13:53.879Z,2.83
2022-11-03T04:16:39.714Z,2.78
2022-11-03T04:19:24.887Z,2.58
2022-11-03T04:22:10.023Z,3.38
2022-11-03T04:24:36.855Z,2.50
2022-11-03T04:27:33.042Z,2.40
2022-11-03T04:30:19.389Z,2.75
2022-11-03T04:32:50.980Z,3.05
2022-11-03T04:35:23.354Z,2.40
2022-11-03T04:38:03.851Z,3.85
2022-11-03T04:40:31.042Z,3.05
2022-11-03T04:42:57.890Z,2.88
2022-11-03T04:45:30.234Z,2.88
2022-11-03T04:48:00.183Z,3.38
2022-11-03T04:50:26.569Z,3.47
2022-11-03T04:52:58.783Z,2.38
2022-11-03T04:55:26.381Z,2.50
2022-11-03T04:58:00.087Z,2.63
2022-11-03T05:00:26.539Z,3.30
2022-11-03T05:02:56.138Z,2.60
2022-11-03T05:05:25.254Z,3.10
2022-11-03T05:07:54.731Z,2.75
2022-11-03T05:10:25.841Z,2.70
2022-11-03T05:12:55.300Z,2.83
2022-11-03T05:15:38.279Z,2.60
2022-11-03T05:18:17.534Z,3.22
2022-11-03T05:20:58.326Z,3.00
2022-11-03T05:25:57.826Z,2.85
2022-11-03T05:28:28.737Z,3.15
2022-11-03T05:30:55.933Z,3.45
2022-11-03T05:33:32.070Z,2.90
2022-11-03T05:36:02.212Z,3.67
2022-11-03T05:38:31.219Z,4.20
2022-11-03T05:40:58.996Z,4.00
2022-11-03T05:43:26.339Z,3.88
2022-11-03T05:45:58.779Z,3.70
2022-11-03T05:48:37.531Z,3.35
2022-11-03T05:51:21.701Z,3.83
2022-11-03T05:53:53.559Z,3.38
2022-11-03T05:56:23.717Z,3.30
2022-11-03T05:58:59.411Z,3.08
2022-11-03T06:01:44.387Z,3.15
2022-11-03T06:04:22.136Z,3.35
2022-11-03T06:07:00.807Z,2.95
2022-11-03T06:09:27.773Z,3.35
2022-11-03T06:11:57.232Z,2.92
2022-11-03T06:14:26.265Z,2.78
2022-11-03T06:16:56.620Z,3.20
2022-11-03T06:19:26.981Z,2.60
2022-11-03T06:21:56.865Z,3.08
2022-11-03T06:24:28.975Z,2.40
2022-11-03T06:26:56.203Z,3.20
2022-11-03T06:29:23.094Z,2.65
2022-11-03T06:31:53.406Z,2.75
2022-11-03T06:34:33.371Z,2.88
2022-11-03T06:37:13.755Z,2.75
2022-11-03T06:39:40.546Z,2.80
2022-11-03T06:42:15.005Z,3.15
2022-11-03T06:44:44.293Z,3.15
2022-11-03T06:47:29.644Z,3.22
2022-11-03T06:50:00.381Z,2.83
2022-11-03T06:52:33.877Z,3.30
2022-11-03T06:55:16.717Z,3.03
2022-11-03T06:57:46.548Z,3.05
2022-11-03T07:00:41.064Z,2.90
2022-11-03T07:03:15.298Z,3.33
2022-11-03T07:05:42.567Z,2.90
2022-11-03T07:08:30.609Z,2.70
2022-11-03T07:11:11.061Z,3.78
2022-11-03T07:13:37.993Z,3.70
2022-11-03T07:16:04.598Z,4.13
2022-11-03T07:18:35.419Z,4.03
2022-11-03T07:21:25.807Z,4.30
2022-11-03T07:23:52.423Z,3.95
2022-11-03T07:26:19.324Z,4.05
2022-11-03T07:28:48.548Z,4.32
2022-11-03T07:31:25.202Z,4.10
2022-11-03T07:33:58.172Z,3.95
2022-11-03T07:36:27.801Z,4.90
2022-11-03T07:38:57.456Z,4.38
2022-11-03T07:41:31.290Z,3.78
2022-11-03T07:44:01.848Z,3.72
2022-11-03T07:46:28.264Z,4.20
2022-11-03T07:49:02.188Z,3.75
2022-11-03T07:51:34.828Z,4.75
2022-11-03T07:54:23.560Z,5.78
2022-11-03T07:56:58.567Z,4.82
2022-11-03T07:59:35.213Z,4.95
2022-11-03T08:02:14.386Z,5.22
2022-11-03T08:04:40.829Z,4.60
2022-11-03T08:07:07.707Z,5.32
2022-11-03T08:09:34.863Z,5.70
2022-11-03T08:12:01.550Z,5.05
2022-11-03T08:14:27.942Z,6.07
2022-11-03T08:16:54.852Z,5.65
2022-11-03T08:19:21.435Z,5.45
2022-11-03T08:21:47.903Z,5.80
2022-11-03T08:24:14.813Z,5.45
2022-11-03T08:26:41.325Z,5.40
2022-11-03T08:29:08.369Z,5.90
2022-11-03T08:31:34.754Z,6.03
2022-11-03T08:34:01.710Z,5.95
2022-11-03T08:36:28.137Z,6.57
2022-11-03T08:38:55.133Z,6.53
2022-11-03T08:41:22.061Z,7.57
2022-11-03T08:43:49.144Z,5.25
2022-11-03T08:46:18.036Z,5.40
2022-11-03T08:48:46.073Z,4.25
2022-11-03T08:51:14.325Z,3.53
2022-11-03T08:53:42.615Z,4.55
2022-11-03T08:56:12.885Z,4.05
2022-11-03T08:58:40.917Z,4.72
2022-11-03T09:01:10.616Z,5.07
2022-11-03T09:03:37.371Z,5.10
2022-11-03T09:06:04.009Z,5.15
2022-11-03T09:11:17.503Z,4.60
2022-11-03T09:13:46.764Z,4.70
2022-11-03T09:16:13.629Z,4.30
2022-11-03T09:18:40.134Z,4.68
2022-11-03T09:21:07.215Z,4.22
2022-11-03T09:23:33.764Z,4.38
2022-11-03T09:26:00.615Z,4.50
2022-11-03T09:28:27.121Z,4.70
2022-11-03T09:30:54.929Z,4.47
2022-11-03T09:33:24.678Z,3.80
2022-11-03T09:35:51.038Z,3.92
2022-11-03T09:38:17.615Z,4.20
2022-11-03T09:40:45.027Z,3.88
2022-11-03T09:43:13.992Z,4.55
2022-11-03T09:45:40.405Z,3.83
2022-11-03T09:48:11.821Z,4.80
2022-11-03T09:50:39.177Z,4.13
2022-11-03T09:53:06.619Z,4.22
2022-11-03T09:55:33.587Z,3.60
2022-11-03T09:58:12.894Z,3.20
2022-11-03T10:00:39.695Z,3.30
2022-11-03T10:03:06.678Z,4.10
2022-11-03T10:05:34.009Z,4.15
2022-11-03T10:08:07.279Z,3.50
2022-11-03T10:10:35.576Z,4.35
2022-11-03T10:13:02.625Z,3.50
2022-11-03T10:15:29.168Z,3.45
2022-11-03T10:17:56.903Z,4.25
2022-11-03T10:20:23.822Z,3.90
2022-11-03T10:22:53.408Z,4.00
2022-11-03T10:25:40.000Z,3.53
2022-11-03T10:28:24.311Z,4.40
2022-11-03T10:31:10.724Z,3.50
2022-11-03T10:33:52.107Z,3.50
2022-11-03T10:36:18.546Z,3.92
2022-11-03T10:38:45.673Z,3.67
2022-11-03T10:41:17.844Z,3.65
2022-11-03T10:43:59.677Z,4.50
2022-11-03T10:46:49.166Z,3.60
2022-11-03T10:49:16.418Z,3.70
2022-11-03T10:51:46.770Z,4.03
2022-11-03T10:54:20.051Z,2.95
2022-11-03T10:56:47.383Z,3.78
2022-11-03T10:59:32.054Z,3.70
2022-11-03T11:02:00.530Z,3.97
2022-11-03T11:04:27.567Z,3.70
2022-11-03T11:06:54.997Z,3.58
2022-11-03T11:09:26.783Z,2.90
2022-11-03T11:12:05.705Z,3.35
2022-11-03T11:14:39.178Z,2.40
2022-11-03T11:17:26.360Z,2.03
2022-11-03T11:20:18.399Z,2.38
2022-11-03T11:22:49.752Z,2.38
2022-11-03T11:25:18.698Z,2.95
2022-11-03T11:27:45.487Z,2.55
2022-11-03T11:30:21.297Z,2.17
2022-11-03T11:33:00.699Z,2.85
2022-11-03T11:35:27.048Z,2.63
2022-11-03T11:37:54.517Z,2.75
2022-11-03T11:40:23.891Z,2.58
2022-11-03T11:43:03.233Z,2.40
2022-11-03T11:46:07.159Z,3.42
2022-11-03T11:48:34.664Z,2.67
2022-11-03T11:51:03.287Z,3.40
2022-11-03T11:53:38.008Z,2.75
2022-11-03T11:56:05.002Z,3.08
2022-11-03T11:58:43.501Z,3.00
2022-11-03T12:01:24.097Z,2.60
2022-11-03T12:03:54.656Z,2.85
2022-11-03T12:06:42.295Z,3.03
2022-11-03T12:09:27.853Z,3.08
2022-11-03T12:12:06.881Z,2.92
2022-11-03T12:14:36.821Z,2.85
2022-11-03T12:17:18.659Z,3.38
2022-11-03T12:19:50.129Z,3.10
2022-11-03T12:22:29.716Z,3.22
2022-11-03T12:25:07.039Z,2.60
2022-11-03T12:27:34.088Z,3.25
2022-11-03T12:30:04.005Z,3.22
2022-11-03T12:32:33.631Z,3.07
2022-11-03T12:35:01.459Z,2.72
2022-11-03T12:37:28.146Z,2.88
2022-11-03T12:39:54.556Z,3.33
2022-11-03T12:42:21.035Z,3.40
2022-11-03T12:44:47.814Z,3.17
2022-11-03T12:47:14.728Z,3.67
2022-11-03T12:49:41.466Z,3.25
2022-11-03T12:52:08.720Z,3.30
2022-11-03T12:54:35.447Z,3.55
2022-11-03T12:57:02.470Z,2.40
2022-11-03T12:59:29.155Z,3.03
2022-11-03T13:01:56.007Z,3.15
2022-11-03T13:04:22.675Z,3.45
2022-11-03T13:06:49.109Z,3.53
2022-11-03T13:09:15.721Z,2.85
2022-11-03T13:12:01.301Z,4.15
2022-11-03T13:14:27.764Z,3.67
2022-11-03T13:16:54.132Z,3.42
2022-11-03T13:19:20.570Z,3.65
2022-11-03T13:21:46.965Z,2.95
2022-11-03T13:24:14.081Z,2.85
2022-11-03T13:26:40.475Z,3.65
2022-11-03T13:29:08.179Z,3.20
2022-11-03T13:31:35.876Z,3.00
2022-11-03T13:34:02.356Z,3.40
2022-11-03T13:36:29.111Z,2.58
2022-11-03T13:38:56.022Z,3.15
2022-11-03T13:41:22.734Z,3.45
2022-11-03T13:43:49.164Z,2.90
2022-11-03T13:46:15.905Z,3.15
2022-11-03T13:51:29.470Z,2.28
2022-11-03T13:59:30.004Z,2.03
2022-11-03T14:04:43.904Z,2.45
2022-11-03T14:07:13.770Z,1.95
2022-11-03T14:09:40.990Z,2.10
2022-11-03T14:12:26.070Z,1.85
2022-11-03T14:14:52.766Z,1.98
2022-11-03T14:17:19.235Z,1.98
2022-11-03T14:19:51.747Z,2.20
2022-11-03T14:22:23.689Z,1.75
2022-11-03T14:24:51.399Z,1.70
2022-11-03T14:27:20.210Z,2.72
2022-11-03T14:29:50.807Z,2.15
2022-11-03T14:32:18.404Z,2.38
2022-11-03T14:34:45.932Z,2.03
2022-11-03T14:37:14.145Z,2.17
2022-11-03T14:39:40.918Z,2.42
2022-11-03T14:42:16.509Z,2.63
2022-11-03T14:44:46.233Z,2.97
2022-11-03T14:47:19.020Z,2.90
2022-11-03T14:49:46.390Z,2.45
2022-11-03T14:52:14.105Z,2.17
2022-11-03T14:54:40.983Z,2.20
2022-11-03T14:57:07.711Z,2.55
2022-11-03T14:59:34.564Z,2.28
2022-11-03T15:02:02.361Z,2.25
2022-11-03T15:04:28.946Z,2.22
2022-11-03T15:06:55.657Z,2.15
2022-11-03T15:09:25.325Z,1.90
2022-11-03T15:11:52.007Z,2.25
2022-11-03T15:14:18.973Z,2.00
2022-11-03T15:16:46.041Z,2.00
2022-11-03T15:19:12.654Z,2.45
2022-11-03T15:21:39.046Z,2.15
2022-11-03T15:26:52.909Z,2.15
2022-11-03T15:29:19.561Z,2.25
2022-11-03T15:31:48.202Z,2.30
2022-11-03T15:34:15.890Z,2.38
2022-11-03T15:36:42.574Z,2.30
2022-11-03T15:39:09.553Z,1.67
2022-11-03T15:41:37.252Z,2.22
2022-11-03T15:44:03.925Z,2.58
2022-11-03T15:46:30.316Z,2.67
2022-11-03T15:48:58.790Z,4.05
2022-11-03T15:51:25.394Z,3.90
2022-11-03T15:53:56.914Z,4.45
2022-11-03T15:56:26.817Z,4.45
2022-11-03T15:58:53.463Z,3.78
2022-11-03T16:01:20.388Z,4.00
2022-11-03T16:03:47.913Z,3.58
2022-11-03T16:06:15.065Z,4.07
2022-11-03T16:08:42.117Z,3.95
2022-11-03T16:11:11.711Z,3.75
2022-11-03T16:13:39.539Z,3.60
2022-11-03T16:16:06.258Z,3.70
2022-11-03T16:18:32.878Z,3.85
2022-11-03T16:20:59.507Z,4.38
2022-11-03T16:23:25.992Z,6.05
2022-11-03T16:25:52.506Z,5.80
2022-11-03T16:28:19.393Z,5.00
2022-11-03T16:30:51.123Z,5.10
2022-11-03T16:33:21.070Z,6.65
2022-11-03T16:35:47.567Z,5.45
2022-11-03T16:38:15.527Z,5.63
2022-11-03T16:40:42.576Z,5.07
2022-11-03T16:43:09.771Z,5.80
2022-11-03T16:45:38.179Z,5.47
2022-11-03T16:48:06.369Z,5.45
2022-11-03T16:50:33.996Z,5.68
2022-11-03T16:53:00.767Z,5.32
2022-11-03T16:55:27.440Z,6.47
2022-11-03T16:57:53.905Z,8.77
2022-11-03T17:00:20.588Z,6.53
2022-11-03T17:02:47.493Z,8.45
2022-11-03T17:05:15.480Z,7.32
2022-11-03T17:07:41.919Z,6.15
2022-11-03T17:10:09.935Z,6.20
2022-11-03T17:12:37.015Z,6.28
2022-11-03T17:15:04.686Z,6.50
2022-11-03T17:17:31.154Z,6.57
2022-11-03T17:19:58.323Z,7.55
2022-11-03T17:22:27.536Z,7.18
2022-11-03T17:24:54.174Z,7.85
2022-11-03T17:27:45.205Z,7.07
2022-11-03T17:30:20.303Z,5.53
2022-11-03T17:32:48.866Z,5.20
2022-11-03T17:35:38.930Z,4.70
2022-11-03T17:38:15.109Z,4.25
2022-11-03T17:40:43.886Z,4.18
2022-11-03T17:43:27.141Z,3.78
2022-11-03T17:45:54.246Z,3.70
2022-11-03T17:48:22.831Z,3.40
2022-11-03T17:50:51.731Z,3.50
2022-11-03T17:53:31.191Z,3.90
2022-11-03T17:56:28.364Z,3.40
2022-11-03T17:58:47.395Z,3.35
2022-11-03T18:01:22.159Z,3.20
2022-11-03T18:03:48.648Z,3.63
2022-11-03T18:06:18.902Z,3.58
2022-11-03T18:08:46.439Z,2.80
2022-11-03T18:11:35.365Z,3.60
2022-11-03T18:14:02.834Z,4.10
2022-11-03T18:16:31.509Z,3.70
2022-11-03T18:18:59.217Z,3.67
2022-11-03T18:21:26.801Z,3.65
2022-11-03T18:23:53.249Z,3.35
2022-11-03T18:26:22.102Z,3.00
2022-11-03T18:28:50.491Z,2.28
2022-11-03T18:31:38.820Z,3.08
2022-11-03T18:34:11.539Z,3.20
2022-11-03T18:36:38.196Z,2.85
2022-11-03T18:39:05.111Z,3.22
2022-11-03T18:41:41.073Z,2.88
2022-11-03T18:44:29.391Z,2.92
2022-11-03T18:46:56.876Z,2.58
2022-11-03T18:49:25.540Z,2.90
2022-11-03T18:52:00.926Z,2.95
2022-11-03T18:54:31.585Z,3.70
2022-11-03T18:56:58.674Z,3.08
2022-11-03T18:59:32.771Z,2.90
2022-11-03T19:01:59.744Z,3.55
2022-11-03T19:04:26.378Z,3.60
2022-11-03T19:06:53.415Z,3.80
2022-11-03T19:09:24.634Z,3.25
2022-11-03T19:11:54.265Z,3.22
2022-11-03T19:14:23.261Z,3.13
2022-11-03T19:17:21.236Z,3.00
2022-11-03T19:19:39.621Z,2.90
2022-11-03T19:22:12.799Z,3.42
2022-11-03T19:24:40.357Z,3.75
2022-11-03T19:27:13.773Z,3.85
2022-11-03T19:29:40.963Z,3.47
2022-11-03T19:32:21.772Z,3.20
2022-11-03T19:37:17.322Z,3.30
2022-11-03T19:39:44.119Z,2.97
2022-11-03T19:42:36.448Z,3.50
2022-11-03T19:45:09.003Z,3.72
2022-11-03T19:47:52.561Z,3.85
2022-11-03T19:50:32.330Z,4.40
2022-11-03T19:53:02.554Z,4.00
2022-11-03T19:58:02.196Z,4.28
2022-11-03T20:00:28.601Z,2.97
2022-11-03T20:02:55.587Z,3.78
2022-11-03T20:05:21.970Z,3.60
2022-11-03T20:07:48.859Z,4.65
2022-11-03T20:10:17.633Z,3.20
2022-11-03T20:12:45.490Z,3.08
2022-11-03T20:15:17.193Z,2.88
2022-11-03T20:17:45.747Z,2.88
2022-11-03T20:20:17.877Z,2.83
2022-11-03T20:22:51.624Z,2.70
2022-11-03T20:25:24.909Z,3.17
2022-11-03T20:27:51.895Z,2.80
2022-11-03T20:30:20.462Z,2.60
2022-11-03T20:32:47.727Z,2.90
2022-11-03T20:35:20.065Z,2.95
2022-11-03T20:37:53.012Z,2.83
2022-11-03T20:40:22.533Z,2.95
2022-11-03T20:42:51.413Z,2.80
2022-11-03T20:45:20.710Z,3.20
2022-11-03T20:47:48.399Z,3.10
2022-11-03T20:50:16.504Z,3.08
2022-11-03T20:52:44.064Z,3.28
2022-11-03T20:55:14.892Z,3.08
2022-11-03T20:57:41.814Z,3.08
2022-11-03T21:00:14.330Z,3.00
2022-11-03T21:02:41.233Z,3.35
2022-11-03T21:05:28.902Z,3.10
2022-11-03T21:07:55.709Z,2.80
2022-11-03T21:10:23.905Z,2.63
2022-11-03T21:12:57.995Z,3.13
2022-11-03T21:16:03.765Z,3.00
2022-11-03T21:18:49.205Z,2.53
2022-11-03T21:21:20.707Z,3.10
2022-11-03T21:23:48.375Z,3.15
2022-11-03T21:26:15.086Z,3.25
2022-11-03T21:28:41.574Z,3.28
2022-11-03T21:31:12.899Z,2.78
2022-11-03T21:33:39.303Z,3.47
2022-11-03T21:36:05.961Z,2.78
2022-11-03T21:38:32.967Z,3.38
2022-11-03T21:41:19.465Z,3.55
2022-11-03T21:44:05.142Z,4.25
2022-11-03T21:46:31.605Z,3.65
2022-11-03T21:49:17.217Z,4.60
2022-11-03T21:51:43.687Z,3.83
2022-11-03T21:54:10.325Z,4.07
2022-11-03T21:56:37.070Z,4.07
2022-11-03T21:59:03.486Z,3.90
2022-11-03T22:01:30.231Z,4.07
2022-11-03T22:03:58.393Z,4.50
2022-11-03T22:06:24.988Z,4.28
2022-11-03T22:08:52.010Z,4.80
2022-11-03T22:11:21.273Z,4.63
2022-11-03T22:13:58.934Z,5.78
2022-11-03T22:16:39.782Z,4.82
2022-11-03T22:19:31.684Z,5.32
2022-11-03T22:22:17.903Z,6.07
2022-11-03T22:25:03.172Z,5.55
2022-11-03T22:27:31.719Z,6.53
2022-11-03T22:30:17.615Z,6.88
2022-11-03T22:32:44.676Z,6.25
2022-11-03T22:35:30.845Z,6.90
2022-11-03T22:38:11.840Z,7.20
2022-11-03T22:40:58.661Z,6.25
2022-11-03T22:43:45.199Z,6.05
2022-11-03T22:46:13.768Z,5.97
2022-11-03T22:48:40.412Z,6.43
2022-11-03T22:51:15.545Z,7.20
2022-11-03T22:54:16.070Z,6.28
2022-11-03T22:56:42.490Z,6.53
2022-11-03T22:59:09.472Z,6.13
2022-11-03T23:01:36.306Z,7.30
2022-11-03T23:04:07.351Z,6.20
2022-11-03T23:06:36.816Z,7.13
2022-11-03T23:09:04.237Z,6.95
2022-11-03T23:11:32.874Z,6.07
2022-11-03T23:14:03.229Z,6.45
2022-11-03T23:16:32.766Z,6.53
2022-11-03T23:19:18.665Z,6.97
2022-11-03T23:21:46.784Z,8.40
2022-11-03T23:24:32.829Z,6.90
2022-11-03T23:27:02.387Z,6.95
2022-11-03T23:29:29.480Z,7.43
2022-11-03T23:31:58.119Z,6.85
2022-11-03T23:34:25.480Z,6.65
2022-11-03T23:36:53.174Z,6.43
2022-11-03T23:39:21.569Z,7.03
2022-11-03T23:41:50.176Z,5.45
2022-11-03T23:44:17.516Z,6.05
2022-11-03T23:47:03.377Z,5.63
2022-11-03T23:49:30.255Z,5.50
2022-11-03T23:51:56.793Z,6.15
2022-11-03T23:54:23.464Z,5.93
2022-11-03T23:57:11.867Z,6.07
2022-11-03T23:59:38.439Z,5.88
